Time;durP1;ratioP1;P1;durP2;ratioP2;P2;SDS_P1;SDS_P2;PMS_P1;PMS_P2;Temp;Humidity;BMP_temperature;BMP_pressure;BME280_temperature;BME280_humidity;BME280_pressure;Samples;Min_cycle;Max_cycle;Signal;HPM_P1;HPM_P2
2022/03/21 00:02:09;;;;;;;15.15;8.27;;;7.60;41.70;;;;;;5056549;28;20029;-85
2022/03/21 00:04:35;;;;;;;16.88;9.10;;;7.70;41.80;;;;;;5056864;28;20020;-84
2022/03/21 00:07:01;;;;;;;15.65;7.70;;;7.80;41.60;;;;;;5056730;28;20028;-84
2022/03/21 00:09:27;;;;;;;16.73;8.25;;;7.70;41.50;;;;;;5057049;28;20028;-84
2022/03/21 00:11:53;;;;;;;14.20;8.73;;;7.30;41.80;;;;;;5056596;28;20021;-85
2022/03/21 00:14:19;;;;;;;16.63;9.05;;;7.30;42.10;;;;;;5056926;28;20043;-84
2022/03/21 00:16:46;;;;;;;17.85;8.70;;;7.00;42.60;;;;;;5074544;28;20020;-84
2022/03/21 00:19:12;;;;;;;12.70;7.60;;;6.80;42.80;;;;;;5056206;28;20053;-84
2022/03/21 00:21:37;;;;;;;18.70;8.43;;;6.60;43.00;;;;;;5056769;28;20024;-84
2022/03/21 00:24:04;;;;;;;15.95;7.70;;;6.40;43.60;;;;;;5056523;28;20146;-85
2022/03/21 00:26:30;;;;;;;16.73;9.05;;;6.40;44.10;;;;;;5056450;28;20031;-84
2022/03/21 00:28:55;;;;;;;17.38;8.23;;;6.50;43.70;;;;;;5056710;28;20028;-85
2022/03/21 00:31:21;;;;;;;13.45;7.20;;;6.60;43.60;;;;;;5056238;28;20047;-85
2022/03/21 00:33:47;;;;;;;13.65;8.10;;;6.60;43.60;;;;;;5056622;28;20088;-84
2022/03/21 00:36:12;;;;;;;14.85;8.15;;;6.30;43.90;;;;;;5073842;28;20020;-85
2022/03/21 00:38:38;;;;;;;15.02;8.18;;;6.10;45.10;;;;;;5056141;28;20036;-84
2022/03/21 00:41:05;;;;;;;13.38;7.65;;;5.90;44.80;;;;;;5056874;28;20023;-85
2022/03/21 00:43:32;;;;;;;15.15;8.57;;;5.90;45.00;;;;;;5056511;28;20478;-85
2022/03/21 00:45:58;;;;;;;15.10;7.95;;;6.00;44.80;;;;;;5055398;28;20012;-85
2022/03/21 00:48:25;;;;;;;15.45;8.25;;;6.00;44.50;;;;;;5056360;28;20032;-85
2022/03/21 00:50:53;;;;;;;14.18;8.27;;;6.10;44.60;;;;;;5056369;28;20031;-85
2022/03/21 00:53:20;;;;;;;12.88;7.65;;;6.50;44.00;;;;;;5056002;28;20047;-85
2022/03/21 00:55:46;;;;;;;14.75;8.30;;;6.50;43.70;;;;;;5056331;28;20032;-84
2022/03/21 00:58:12;;;;;;;16.83;8.25;;;6.80;43.40;;;;;;5073553;28;20471;-85
2022/03/21 01:00:38;;;;;;;15.75;8.38;;;6.70;43.60;;;;;;5073882;28;20021;-85
2022/03/21 01:03:04;;;;;;;16.75;8.35;;;6.70;43.30;;;;;;5055986;28;20020;-85
2022/03/21 01:05:31;;;;;;;16.23;8.48;;;6.70;43.20;;;;;;5073548;28;20025;-85
2022/03/21 01:07:58;;;;;;;16.38;8.43;;;6.40;44.00;;;;;;5056172;28;20034;-86
2022/03/21 01:10:25;;;;;;;17.98;8.07;;;6.20;43.80;;;;;;5055951;28;20025;-85
2022/03/21 01:12:52;;;;;;;16.00;8.38;;;6.10;44.60;;;;;;5056145;28;20035;-85
2022/03/21 01:15:19;;;;;;;16.67;8.48;;;5.90;44.40;;;;;;5055271;28;20017;-85
2022/03/21 01:17:46;;;;;;;16.25;8.15;;;5.70;45.60;;;;;;5055836;28;20040;-85
2022/03/21 01:20:13;;;;;;;15.88;8.55;;;5.80;45.50;;;;;;5052765;28;20098;-85
2022/03/21 01:22:39;;;;;;;17.63;9.02;;;5.60;46.40;;;;;;5052628;28;20139;-85
2022/03/21 01:25:08;;;;;;;14.43;8.23;;;5.30;46.60;;;;;;5051763;28;20482;-85
2022/03/21 01:27:34;;;;;;;15.38;8.57;;;5.10;47.00;;;;;;5053166;28;20434;-85
2022/03/21 01:30:08;;;;;;;16.65;8.95;;;5.00;47.80;;;;;;5052360;28;20116;-85
2022/03/21 01:32:34;;;;;;;18.10;9.75;;;5.20;48.30;;;;;;5052434;28;20112;-86
2022/03/21 01:35:00;;;;;;;16.83;9.20;;;5.30;46.90;;;;;;5052372;28;20033;-85
2022/03/21 01:37:28;;;;;;;20.17;9.80;;;5.40;46.50;;;;;;5052362;28;20040;-86
2022/03/21 01:39:57;;;;;;;18.10;9.43;;;5.70;47.00;;;;;;5053178;28;20116;-85
2022/03/21 01:42:51;;;;;;;17.63;9.95;;;5.70;45.90;;;;;;5051502;28;20021;-85
2022/03/21 01:45:17;;;;;;;18.00;9.65;;;5.60;46.60;;;;;;5052015;28;20071;-85
2022/03/21 01:47:45;;;;;;;18.60;9.27;;;5.30;47.30;;;;;;5053262;28;20480;-85
2022/03/21 01:50:12;;;;;;;17.63;10.02;;;5.30;47.60;;;;;;5035621;28;20082;-86
2022/03/21 01:52:37;;;;;;;16.67;9.25;;;5.40;47.40;;;;;;5035226;28;20024;-85
2022/03/21 01:57:53;;;;;;;17.77;9.57;;;5.70;47.00;;;;;;5053653;28;20544;-85
2022/03/21 02:00:21;;;;;;;16.65;9.60;;;5.80;46.30;;;;;;5035636;28;20036;-85
2022/03/21 02:02:47;;;;;;;17.15;8.75;;;6.10;45.80;;;;;;5051785;28;20111;-85
2022/03/21 02:05:13;;;;;;;17.10;8.98;;;6.00;45.70;;;;;;5054661;28;20028;-85
2022/03/21 02:07:38;;;;;;;18.20;8.55;;;5.90;45.30;;;;;;5038681;28;20479;-85
2022/03/21 02:10:06;;;;;;;16.25;9.23;;;5.50;46.00;;;;;;5039145;28;20028;-84
2022/03/21 02:12:33;;;;;;;15.35;8.55;;;5.50;46.10;;;;;;5057087;28;20531;-85
2022/03/21 02:14:59;;;;;;;16.27;8.90;;;6.00;45.60;;;;;;5038681;28;20033;-85
2022/03/21 02:17:27;;;;;;;16.45;8.95;;;6.10;44.90;;;;;;5056602;28;20499;-85
2022/03/21 02:19:54;;;;;;;14.95;7.75;;;5.70;45.20;;;;;;5055465;28;20518;-84
2022/03/21 02:25:45;;;;;;;16.38;8.70;;;5.00;47.00;;;;;;5043378;28;20388;-85
2022/03/21 02:28:55;;;;;;;16.92;8.35;;;5.50;46.80;;;;;;5039243;28;20112;-85
2022/03/21 02:31:21;;;;;;;14.80;8.15;;;5.70;46.00;;;;;;5039101;28;20461;-84
2022/03/21 02:33:48;;;;;;;15.40;8.32;;;5.90;46.00;;;;;;5038418;28;20029;-84
2022/03/21 02:36:16;;;;;;;18.08;8.30;;;5.90;45.70;;;;;;5056414;28;20021;-84
2022/03/21 02:38:44;;;;;;;17.85;8.55;;;6.00;45.40;;;;;;5037989;28;20128;-85
2022/03/21 02:41:13;;;;;;;13.45;8.00;;;6.20;45.70;;;;;;5038602;28;20067;-84
2022/03/21 02:43:55;;;;;;;15.70;9.00;;;6.20;45.40;;;;;;5038570;28;20131;-85
2022/03/21 02:46:22;;;;;;;16.52;8.77;;;6.30;45.00;;;;;;5056301;28;20056;-85
2022/03/21 02:48:49;;;;;;;17.15;8.18;;;5.70;46.10;;;;;;5055965;28;20024;-85
2022/03/21 02:51:17;;;;;;;14.13;8.57;;;5.30;46.40;;;;;;5056263;28;20072;-85
2022/03/21 02:53:45;;;;;;;14.75;8.32;;;5.10;47.50;;;;;;5038367;28;20509;-84
2022/03/21 02:56:11;;;;;;;14.48;7.85;;;5.00;47.40;;;;;;5037765;28;20082;-83
2022/03/21 02:58:37;;;;;;;14.82;8.70;;;4.80;47.60;;;;;;5038274;28;20044;-82
2022/03/21 03:01:14;;;;;;;15.30;8.40;;;4.90;48.30;;;;;;5056216;28;20525;-83
2022/03/21 03:03:41;;;;;;;14.00;8.18;;;5.20;47.50;;;;;;5038203;28;20103;-84
2022/03/21 03:06:07;;;;;;;17.70;7.88;;;5.40;47.00;;;;;;5055802;28;20496;-84
2022/03/21 03:08:33;;;;;;;16.02;8.30;;;5.70;46.70;;;;;;5037940;28;20482;-84
2022/03/21 03:10:59;;;;;;;15.45;8.45;;;5.30;46.60;;;;;;5038179;28;20130;-84
2022/03/21 03:13:25;;;;;;;14.95;8.48;;;4.90;47.60;;;;;;5037939;28;20212;-85
2022/03/21 03:15:51;;;;;;;14.40;8.50;;;4.90;48.30;;;;;;5037493;28;20025;-83
2022/03/21 03:18:17;;;;;;;16.45;9.30;;;5.00;47.70;;;;;;5055362;28;20110;-84
2022/03/21 03:20:53;;;;;;;16.10;8.55;;;5.50;47.10;;;;;;5054158;28;20387;-84
2022/03/21 03:23:21;;;;;;;17.48;8.95;;;5.40;46.60;;;;;;5055601;28;20189;-83
2022/03/21 03:25:49;;;;;;;16.67;9.18;;;5.50;46.80;;;;;;5054772;28;20032;-83
2022/03/21 03:28:15;;;;;;;19.20;9.48;;;5.80;46.40;;;;;;5037497;28;20388;-84
2022/03/21 03:30:41;;;;;;;15.98;8.77;;;5.90;46.40;;;;;;5037244;28;20023;-84
2022/03/21 03:33:08;;;;;;;18.95;9.55;;;5.90;45.90;;;;;;5037744;28;20029;-87
2022/03/21 03:35:34;;;;;;;15.63;8.98;;;5.60;45.90;;;;;;5037055;28;20407;-85
2022/03/21 03:38:01;;;;;;;16.98;9.27;;;5.70;46.40;;;;;;5053978;28;20041;-84
2022/03/21 03:40:26;;;;;;;15.60;8.90;;;5.50;46.20;;;;;;5054114;28;20025;-83
2022/03/21 03:42:52;;;;;;;15.77;9.52;;;5.30;46.60;;;;;;5053960;28;20025;-85
2022/03/21 03:45:17;;;;;;;16.70;8.88;;;5.40;46.80;;;;;;5047078;28;20063;-82
2022/03/21 03:47:43;;;;;;;17.20;9.13;;;5.50;46.60;;;;;;5037141;28;20090;-83
2022/03/21 03:50:09;;;;;;;17.02;9.25;;;5.60;46.90;;;;;;5053856;28;20033;-84
2022/03/21 03:52:35;;;;;;;17.08;8.88;;;5.80;46.40;;;;;;5053912;28;20024;-83
2022/03/21 03:55:01;;;;;;;14.38;8.90;;;5.90;46.20;;;;;;5046644;28;20029;-83
2022/03/21 03:57:27;;;;;;;16.33;9.20;;;5.90;46.30;;;;;;5054803;28;20028;-83
2022/03/21 03:59:54;;;;;;;16.88;9.18;;;5.70;46.30;;;;;;5036940;28;20025;-83
2022/03/21 04:02:19;;;;;;;18.90;9.15;;;5.90;45.50;;;;;;5036938;28;20518;-84
2022/03/21 04:04:45;;;;;;;20.40;9.65;;;5.70;46.00;;;;;;5053460;28;20033;-84
2022/03/21 04:07:11;;;;;;;16.98;9.95;;;5.40;46.20;;;;;;5054749;28;20021;-83
2022/03/21 04:09:36;;;;;;;17.95;8.90;;;5.30;46.70;;;;;;5052173;28;20571;-83
2022/03/21 04:12:02;;;;;;;16.70;9.13;;;5.50;46.80;;;;;;5036777;28;20075;-83
2022/03/21 04:14:28;;;;;;;15.88;9.10;;;5.50;47.00;;;;;;5036596;28;20029;-83
2022/03/21 04:16:54;;;;;;;16.48;8.88;;;5.60;46.30;;;;;;5054307;28;20021;-83
2022/03/21 04:19:20;;;;;;;18.02;9.10;;;5.50;47.10;;;;;;5035797;28;20091;-83
2022/03/21 04:21:46;;;;;;;19.48;9.77;;;5.20;46.80;;;;;;5053015;28;20430;-82
2022/03/21 04:24:12;;;;;;;14.93;8.68;;;5.30;46.50;;;;;;5053441;28;20501;-82
2022/03/21 04:26:38;;;;;;;17.80;9.55;;;5.50;46.30;;;;;;5036287;28;20018;-83
2022/03/21 04:29:04;;;;;;;15.57;8.80;;;5.40;46.70;;;;;;5045917;28;20022;-83
2022/03/21 04:31:33;;;;;;;15.80;8.95;;;5.10;46.50;;;;;;5036555;28;20040;-82
2022/03/21 04:33:59;;;;;;;15.80;8.85;;;4.80;47.90;;;;;;5036646;28;20102;-83
2022/03/21 04:36:24;;;;;;;16.38;9.30;;;5.00;47.50;;;;;;5036481;28;20418;-82
2022/03/21 04:38:50;;;;;;;16.08;8.85;;;5.20;47.00;;;;;;5035847;28;20041;-83
2022/03/21 04:41:16;;;;;;;15.90;8.70;;;5.40;46.60;;;;;;5035936;28;20505;-82
2022/03/21 04:43:42;;;;;;;15.80;9.10;;;5.30;47.10;;;;;;5036353;28;20036;-82
2022/03/21 04:46:09;;;;;;;17.92;8.55;;;5.20;47.70;;;;;;5035210;28;20023;-82
2022/03/21 04:48:35;;;;;;;19.23;10.48;;;5.30;47.20;;;;;;5039743;28;20025;-83
2022/03/21 04:51:00;;;;;;;19.67;9.98;;;5.60;46.50;;;;;;5052773;28;20036;-81
2022/03/21 04:53:26;;;;;;;16.10;8.77;;;5.60;46.20;;;;;;5033939;28;20056;-83
2022/03/21 04:55:52;;;;;;;16.92;9.15;;;5.70;46.10;;;;;;5053687;28;20048;-83
2022/03/21 04:58:18;;;;;;;16.63;9.02;;;5.70;46.40;;;;;;5052331;28;20037;-83
2022/03/21 05:00:46;;;;;;;16.77;8.80;;;5.60;46.90;;;;;;5052310;28;20324;-83
2022/03/21 05:03:12;;;;;;;18.10;9.07;;;5.60;47.20;;;;;;5053154;28;20017;-82
2022/03/21 05:05:38;;;;;;;16.98;9.77;;;5.90;47.10;;;;;;5052367;28;20029;-83
2022/03/21 05:08:05;;;;;;;18.48;9.07;;;5.90;46.90;;;;;;5053553;28;20032;-82
2022/03/21 05:10:31;;;;;;;18.45;9.60;;;5.70;46.90;;;;;;5035743;28;20029;-81
2022/03/21 05:12:58;;;;;;;16.02;9.25;;;5.60;47.20;;;;;;5035658;28;20064;-82
2022/03/21 05:15:25;;;;;;;18.90;10.13;;;5.70;47.00;;;;;;5035276;28;20033;-81
2022/03/21 05:17:51;;;;;;;16.35;8.95;;;5.50;47.10;;;;;;5053176;28;20364;-81
2022/03/21 05:20:17;;;;;;;17.77;9.55;;;5.60;47.00;;;;;;5053351;28;20044;-81
2022/03/21 05:31:07;;;;;;;19.50;9.57;;;6.30;46.20;;;;;;5033741;28;20037;-81
2022/03/21 05:36:18;;;;;;;17.77;9.25;;;6.00;46.80;;;;;;5053314;28;20041;-81
2022/03/21 05:38:44;;;;;;;19.20;10.35;;;5.80;47.70;;;;;;5035419;28;20029;-81
2022/03/21 05:41:10;;;;;;;18.02;9.98;;;6.20;46.90;;;;;;5056980;28;20523;-80
2022/03/21 05:43:36;;;;;;;17.38;9.57;;;6.30;46.50;;;;;;5041434;28;20116;-81
2022/03/21 05:46:03;;;;;;;22.08;10.07;;;6.60;45.90;;;;;;5052404;28;20025;-80
2022/03/21 05:51:18;;;;;;;31.23;13.70;;;7.10;44.70;;;;;;5055542;28;20040;-79
2022/03/21 05:53:48;;;;;;;41.15;20.15;;;7.20;44.80;;;;;;5056164;28;20052;-80
2022/03/21 05:56:14;;;;;;;19.77;10.75;;;7.30;44.60;;;;;;5037954;28;20068;-80
2022/03/21 05:58:41;;;;;;;20.23;10.65;;;7.40;44.40;;;;;;5060021;28;20119;-80
2022/03/21 06:01:06;;;;;;;19.95;9.73;;;7.40;44.20;;;;;;5056337;28;20414;-79
2022/03/21 06:03:32;;;;;;;19.27;10.65;;;7.50;44.50;;;;;;5059416;28;20028;-80
2022/03/21 06:05:59;;;;;;;20.08;10.80;;;7.50;44.80;;;;;;5067811;28;20036;-80
2022/03/21 06:08:26;;;;;;;20.45;10.00;;;7.50;45.00;;;;;;5056224;28;20075;-81
2022/03/21 06:11:03;;;;;;;18.27;10.60;;;7.50;45.30;;;;;;5038176;28;20025;-80
2022/03/21 06:13:33;;;;;;;21.10;10.80;;;7.70;45.30;;;;;;5056143;28;20036;-79
2022/03/21 06:16:05;;;;;;;22.52;12.80;;;8.00;45.20;;;;;;5056295;28;20029;-81
2022/03/21 06:18:32;;;;;;;23.23;12.95;;;7.90;45.50;;;;;;5018056;28;20130;-80
2022/03/21 06:21:00;;;;;;;22.88;13.75;;;7.70;46.00;;;;;;5018625;28;20072;-80
2022/03/21 06:23:26;;;;;;;19.40;11.85;;;8.00;45.90;;;;;;5053178;28;20036;-80
2022/03/21 06:25:53;;;;;;;18.75;11.75;;;8.20;45.60;;;;;;5023802;28;20029;-78
2022/03/21 06:28:21;;;;;;;21.02;11.30;;;8.40;45.40;;;;;;5055094;28;20017;-79
2022/03/21 06:30:47;;;;;;;20.02;11.00;;;8.50;44.80;;;;;;5053501;28;20044;-79
2022/03/21 06:33:12;;;;;;;19.95;10.85;;;8.70;44.80;;;;;;5036599;28;20056;-79
2022/03/21 06:35:39;;;;;;;21.17;12.13;;;8.70;45.00;;;;;;5055634;28;20025;-78
2022/03/21 06:38:06;;;;;;;20.08;11.93;;;8.60;45.00;;;;;;5037457;28;20439;-78
2022/03/21 06:40:31;;;;;;;19.02;12.20;;;8.60;44.80;;;;;;5037843;28;20426;-78
2022/03/21 06:42:57;;;;;;;17.67;11.05;;;8.20;45.80;;;;;;5040210;28;20529;-78
2022/03/21 06:45:23;;;;;;;19.83;11.15;;;8.60;45.20;;;;;;5057419;28;20024;-76
2022/03/21 06:47:48;;;;;;;19.63;10.65;;;9.10;44.50;;;;;;5037384;28;20033;-79
2022/03/21 06:50:14;;;;;;;19.23;11.10;;;9.50;44.40;;;;;;5037043;28;20063;-80
2022/03/21 06:52:44;;;;;;;17.60;10.60;;;9.00;43.70;;;;;;5053798;28;20045;-79
2022/03/21 06:55:10;;;;;;;14.10;8.07;;;9.10;43.30;;;;;;5052137;28;20051;-78
2022/03/21 06:57:36;;;;;;;18.95;11.02;;;9.70;41.60;;;;;;5054873;28;20116;-77
2022/03/21 07:00:05;;;;;;;20.05;11.50;;;10.00;39.90;;;;;;5055216;28;20029;-77
2022/03/21 07:02:31;;;;;;;21.23;11.43;;;10.00;39.20;;;;;;5054921;28;20112;-78
2022/03/21 07:04:58;;;;;;;19.88;11.13;;;10.20;38.90;;;;;;5036777;28;20390;-78
2022/03/21 07:07:24;;;;;;;19.83;11.18;;;10.70;38.10;;;;;;5054926;28;20017;-80
2022/03/21 07:09:50;;;;;;;18.83;10.98;;;10.90;37.20;;;;;;5036937;28;20044;-79
2022/03/21 07:12:16;;;;;;;19.63;11.32;;;10.30;37.90;;;;;;5037202;28;20033;-78
2022/03/21 07:14:41;;;;;;;19.73;11.35;;;10.50;38.20;;;;;;5036932;28;20029;-79
2022/03/21 07:17:07;;;;;;;17.65;10.60;;;10.80;37.10;;;;;;5054834;28;20028;-79
2022/03/21 07:19:33;;;;;;;18.83;11.82;;;11.20;35.80;;;;;;5053615;28;20492;-80
2022/03/21 07:22:00;;;;;;;21.35;11.85;;;11.50;36.00;;;;;;5036785;28;20463;-80
2022/03/21 07:24:26;;;;;;;20.23;12.43;;;11.70;35.50;;;;;;5037037;28;20033;-81
2022/03/21 07:26:52;;;;;;;23.08;12.38;;;12.00;35.50;;;;;;5054933;28;20029;-80
2022/03/21 07:29:17;;;;;;;20.23;12.50;;;11.90;35.60;;;;;;5055024;28;20524;-81
2022/03/21 07:31:43;;;;;;;21.70;12.88;;;12.20;34.90;;;;;;5054972;28;20380;-80
2022/03/21 07:34:09;;;;;;;20.67;12.68;;;12.20;34.60;;;;;;5054326;28;20025;-81
2022/03/21 07:36:34;;;;;;;18.45;11.70;;;12.10;34.10;;;;;;5037325;28;20119;-82
2022/03/21 07:39:00;;;;;;;18.50;11.70;;;12.30;34.40;;;;;;5036983;28;20480;-81
2022/03/21 07:41:26;;;;;;;21.80;11.65;;;12.30;34.70;;;;;;5037014;28;20499;-82
2022/03/21 07:43:56;;;;;;;19.75;12.60;;;12.40;33.70;;;;;;5054610;28;20539;-81
2022/03/21 07:49:06;;;;;;;17.48;11.70;;;13.60;34.20;;;;;;5054585;28;20044;-81
2022/03/21 07:51:32;;;;;;;21.85;12.65;;;15.70;31.80;;;;;;5036381;28;20025;-82
2022/03/21 07:53:57;;;;;;;19.85;11.82;;;17.40;30.80;;;;;;5036473;28;20071;-82
2022/03/21 07:56:23;;;;;;;19.02;11.45;;;18.70;30.70;;;;;;5053936;28;20364;-81
2022/03/21 07:58:49;;;;;;;20.20;11.88;;;19.60;29.00;;;;;;5054292;28;20155;-81
2022/03/21 08:01:15;;;;;;;18.13;11.55;;;19.30;28.90;;;;;;5053845;28;20029;-81
2022/03/21 08:03:41;;;;;;;21.25;12.40;;;19.40;29.60;;;;;;5035602;28;20491;-82
2022/03/21 08:06:10;;;;;;;17.63;11.80;;;20.50;29.50;;;;;;5035992;28;20029;-79
2022/03/21 08:08:37;;;;;;;20.33;13.15;;;21.80;29.30;;;;;;5036256;28;20021;-81
2022/03/21 08:11:04;;;;;;;17.73;11.80;;;23.50;28.20;;;;;;5036268;28;20025;-80
2022/03/21 08:13:33;;;;;;;19.05;12.73;;;24.70;27.80;;;;;;5054005;28;20021;-80
2022/03/21 08:16:02;;;;;;;19.15;11.77;;;25.10;27.50;;;;;;5053837;28;20025;-81
2022/03/21 08:18:28;;;;;;;18.77;12.00;;;25.20;27.10;;;;;;5053701;28;20481;-81
2022/03/21 08:20:53;;;;;;;18.80;12.63;;;26.00;27.30;;;;;;5036233;28;20487;-81
2022/03/21 08:23:19;;;;;;;18.42;12.30;;;26.30;26.70;;;;;;5053888;28;20040;-81
2022/03/21 08:25:46;;;;;;;20.15;12.90;;;24.00;26.60;;;;;;5036344;28;20391;-80
2022/03/21 08:28:14;;;;;;;18.63;12.93;;;22.10;27.40;;;;;;5036089;28;20441;-81
2022/03/21 08:30:40;;;;;;;19.63;13.10;;;22.00;27.60;;;;;;5036096;28;20021;-81
2022/03/21 08:33:08;;;;;;;20.88;12.32;;;22.10;27.40;;;;;;5036004;28;20044;-81
2022/03/21 08:35:36;;;;;;;19.58;12.95;;;22.30;27.70;;;;;;5036044;28;20475;-81
2022/03/21 08:38:02;;;;;;;16.92;11.90;;;21.70;27.80;;;;;;5036169;28;20037;-81
2022/03/21 08:40:28;;;;;;;20.90;12.35;;;20.60;27.70;;;;;;5035821;28;20035;-81
2022/03/21 08:42:55;;;;;;;16.13;11.40;;;20.00;28.10;;;;;;5035926;28;20021;-80
2022/03/21 08:45:21;;;;;;;19.35;11.73;;;20.30;27.80;;;;;;5053425;28;20037;-81
2022/03/21 08:47:49;;;;;;;20.00;11.73;;;21.10;28.40;;;;;;5035385;28;20067;-82
2022/03/21 08:50:14;;;;;;;17.98;12.02;;;21.20;27.60;;;;;;5035895;28;20028;-82
2022/03/21 08:52:40;;;;;;;18.23;12.55;;;20.90;28.10;;;;;;5036020;28;20083;-81
2022/03/21 08:55:07;;;;;;;17.17;12.68;;;22.50;28.20;;;;;;5035321;28;20064;-82
2022/03/21 08:57:33;;;;;;;21.63;13.15;;;24.00;27.70;;;;;;5053360;28;20548;-83
2022/03/21 08:59:59;;;;;;;18.40;12.10;;;25.50;27.40;;;;;;5035719;28;20033;-83
2022/03/21 09:02:26;;;;;;;18.05;12.40;;;25.50;27.10;;;;;;5035575;28;20379;-83
2022/03/21 09:04:52;;;;;;;18.88;13.30;;;25.30;26.90;;;;;;5035599;28;20119;-82
2022/03/21 09:07:18;;;;;;;19.38;12.82;;;24.40;27.00;;;;;;5035728;28;20112;-81
2022/03/21 09:09:44;;;;;;;18.52;13.50;;;22.60;27.50;;;;;;5053127;28;20021;-82
2022/03/21 09:12:10;;;;;;;19.33;12.18;;;23.20;28.50;;;;;;5053344;28;20430;-80
2022/03/21 09:14:37;;;;;;;17.02;12.30;;;24.40;27.20;;;;;;5035258;28;20029;-81
2022/03/21 09:17:03;;;;;;;18.10;12.18;;;25.50;27.20;;;;;;5035149;28;20021;-82
2022/03/21 09:19:29;;;;;;;18.95;12.88;;;24.50;27.30;;;;;;5035071;28;20055;-81
2022/03/21 09:21:59;;;;;;;18.65;13.50;;;24.80;26.90;;;;;;5053256;28;20021;-81
2022/03/21 09:24:25;;;;;;;19.15;12.63;;;25.70;26.90;;;;;;5052871;28;20032;-82
2022/03/21 09:26:51;;;;;;;18.08;12.45;;;27.20;27.60;;;;;;5052922;28;20072;-82
2022/03/21 09:29:17;;;;;;;17.65;12.30;;;27.70;27.20;;;;;;5035581;28;20498;-81
2022/03/21 09:31:43;;;;;;;19.23;12.93;;;26.80;26.80;;;;;;5052947;28;20018;-82
2022/03/21 09:34:11;;;;;;;17.98;12.68;;;26.30;26.80;;;;;;5035426;28;20056;-81
2022/03/21 09:36:38;;;;;;;15.98;12.38;;;26.40;27.30;;;;;;5053157;28;20387;-82
2022/03/21 09:39:05;;;;;;;18.25;12.65;;;24.70;26.80;;;;;;5035059;28;20033;-82
2022/03/21 09:41:32;;;;;;;18.27;12.02;;;21.90;27.50;;;;;;5053428;28;20396;-82
2022/03/21 09:44:00;;;;;;;17.80;12.85;;;21.60;28.00;;;;;;5053172;28;20406;-82
2022/03/21 09:46:26;;;;;;;19.38;12.13;;;22.80;27.70;;;;;;5035319;28;20025;-82
2022/03/21 09:48:54;;;;;;;18.67;12.68;;;23.10;28.00;;;;;;5052778;28;20103;-82
2022/03/21 09:51:25;;;;;;;17.23;12.48;;;24.50;27.90;;;;;;5035198;28;20130;-82
2022/03/21 09:53:50;;;;;;;16.27;12.32;;;25.30;27.00;;;;;;5052823;28;20052;-83
2022/03/21 09:56:17;;;;;;;18.33;12.63;;;24.80;27.00;;;;;;5052791;28;20113;-82
2022/03/21 09:58:44;;;;;;;16.60;12.25;;;25.30;27.30;;;;;;5034961;28;20131;-82
2022/03/21 10:01:11;;;;;;;17.88;12.45;;;25.60;27.50;;;;;;5035033;28;20033;-84
2022/03/21 10:03:41;;;;;;;23.63;13.02;;;27.00;27.20;;;;;;5034821;28;20052;-82
2022/03/21 10:06:28;;;;;;;17.60;13.10;;;27.70;26.90;;;;;;5052772;28;20029;-82
2022/03/21 10:09:08;;;;;;;17.33;12.07;;;28.30;27.20;;;;;;5034818;28;20037;-82
2022/03/21 10:11:34;;;;;;;16.95;12.30;;;28.30;26.60;;;;;;5034906;28;20055;-81
2022/03/21 10:14:29;;;;;;;16.83;11.70;;;27.50;26.70;;;;;;5052325;28;20116;-82
2022/03/21 10:16:56;;;;;;;14.18;11.55;;;28.00;27.40;;;;;;5034921;28;20033;-83
2022/03/21 10:19:23;;;;;;;17.02;11.90;;;26.50;26.10;;;;;;5034549;28;20151;-83
2022/03/21 10:22:10;;;;;;;17.67;12.13;;;23.30;27.00;;;;;;5035000;28;20428;-82
2022/03/21 10:24:46;;;;;;;14.55;11.40;;;22.70;27.30;;;;;;5052388;28;20467;-81
2022/03/21 10:27:27;;;;;;;16.10;10.98;;;24.10;27.00;;;;;;5055895;28;20028;-82
2022/03/21 10:29:59;;;;;;;15.52;11.05;;;27.20;27.70;;;;;;5038352;28;20033;-82
2022/03/21 10:32:33;;;;;;;16.20;11.52;;;27.90;26.30;;;;;;5038367;28;20035;-82
2022/03/21 10:36:12;;;;;;;16.27;11.10;;;26.70;26.30;;;;;;5084114;27;1400627;-80
2022/03/21 10:38:38;;;;;;;17.30;10.90;;;25.70;26.30;;;;;;5093297;28;20036;-82
2022/03/21 10:41:09;;;;;;;15.30;11.68;;;24.10;27.20;;;;;;5111452;28;20095;-82
2022/03/21 10:43:35;;;;;;;17.17;11.93;;;24.40;27.10;;;;;;5092988;28;20031;-83
2022/03/21 10:46:02;;;;;;;16.35;12.23;;;24.80;27.30;;;;;;5111302;28;20444;-82
2022/03/21 10:48:31;;;;;;;15.98;12.55;;;25.90;26.90;;;;;;5093226;28;20035;-83
2022/03/21 10:51:01;;;;;;;16.55;11.27;;;27.40;27.00;;;;;;5111067;28;20047;-82
2022/03/21 10:53:45;;;;;;;17.17;12.40;;;29.30;26.90;;;;;;5092917;28;20023;-84
2022/03/21 10:56:12;;;;;;;16.27;12.50;;;30.10;26.30;;;;;;5092774;28;20032;-82
2022/03/21 10:58:48;;;;;;;17.55;12.00;;;30.40;26.80;;;;;;5092868;28;20055;-85
2022/03/21 11:01:14;;;;;;;19.63;11.60;;;31.00;26.40;;;;;;5110722;28;20093;-82
2022/03/21 11:03:41;;;;;;;16.08;11.55;;;29.80;25.70;;;;;;5092520;28;20048;-82
2022/03/21 11:06:08;;;;;;;19.23;11.90;;;28.80;26.10;;;;;;5092523;28;20024;-81
2022/03/21 11:08:35;;;;;;;16.75;11.68;;;27.30;27.00;;;;;;5092491;28;20537;-82
2022/03/21 11:11:03;;;;;;;16.02;12.18;;;27.70;26.60;;;;;;5092728;28;20035;-82
2022/03/21 11:13:30;;;;;;;15.70;11.43;;;28.10;26.70;;;;;;5110621;28;20023;-82
2022/03/21 11:15:56;;;;;;;16.10;11.43;;;27.20;26.40;;;;;;5110483;28;20069;-81
2022/03/21 11:18:23;;;;;;;14.90;10.82;;;25.80;26.20;;;;;;5092457;28;20110;-81
2022/03/21 11:20:49;;;;;;;18.05;12.27;;;24.60;26.20;;;;;;5092436;28;20028;-82
2022/03/21 11:23:15;;;;;;;18.25;11.95;;;22.90;27.60;;;;;;5092259;28;20026;-82
2022/03/21 11:27:32;;;;;;;16.10;10.80;;;20.20;28.00;;;;;;5091097;28;20386;-81
2022/03/21 11:30:06;;;;;;;15.93;11.32;;;20.10;28.10;;;;;;5089901;28;20082;-82
2022/03/21 11:32:47;;;;;;;19.05;10.65;;;19.00;28.30;;;;;;5090006;28;20039;-82
2022/03/21 11:35:14;;;;;;;;;;;19.10;28.20;;;;;;5090122;28;20475;-82
2022/03/21 11:37:42;;;;;;;14.82;10.20;;;19.60;28.50;;;;;;5089813;28;19904;-81
2022/03/21 11:40:34;;;;;;;15.27;10.38;;;19.50;28.20;;;;;;5090911;28;20494;-83
2022/03/21 11:43:18;;;;;;;17.85;10.00;;;18.80;28.10;;;;;;5089503;28;20029;-82
2022/03/21 11:48:17;;;;;;;14.52;9.27;;;17.40;28.20;;;;;;5091330;27;20953;-82
2022/03/21 11:50:44;;;;;;;17.40;9.90;;;18.00;29.20;;;;;;5090834;28;20047;-83
2022/03/21 11:53:12;;;;;;;15.43;10.27;;;18.60;28.60;;;;;;5090698;28;20020;-82
2022/03/21 11:55:43;;;;;;;19.42;10.35;;;17.80;28.40;;;;;;5090726;28;20025;-81
2022/03/21 11:58:36;;;;;;;15.98;10.60;;;16.40;28.90;;;;;;5090763;28;20145;-84
2022/03/21 12:01:07;;;;;;;14.88;10.30;;;16.00;29.60;;;;;;5089546;28;20082;-83
2022/03/21 12:03:33;;;;;;;15.90;10.43;;;16.30;29.70;;;;;;5090683;28;20031;-83
2022/03/21 12:06:19;;;;;;;15.23;10.13;;;16.80;29.60;;;;;;5090401;28;20024;-80
2022/03/21 12:08:53;;;;;;;13.13;9.55;;;17.60;28.90;;;;;;5088903;28;20094;-82
2022/03/21 12:11:40;;;;;;;14.85;9.43;;;18.40;28.20;;;;;;5089116;28;20016;-82
2022/03/21 12:15:17;;;;;;;13.30;9.52;;;19.70;27.50;;;;;;5091013;27;20371;-82
2022/03/21 12:17:47;;;;;;;15.30;9.90;;;19.90;27.50;;;;;;5089653;28;20034;-81
2022/03/21 12:20:15;;;;;;;13.48;9.68;;;19.40;27.70;;;;;;5090611;28;20047;-82
2022/03/21 12:22:43;;;;;;;12.75;9.27;;;19.20;27.40;;;;;;5089699;28;20486;-82
2022/03/21 12:25:20;;;;;;;14.77;10.07;;;19.70;28.20;;;;;;5089479;28;20025;-82
2022/03/21 12:27:52;;;;;;;16.23;9.95;;;20.10;28.10;;;;;;5089410;28;20533;-82
2022/03/21 12:30:21;;;;;;;13.10;8.52;;;19.70;27.80;;;;;;5089399;28;20470;-82
2022/03/21 12:32:52;;;;;;;14.45;9.93;;;19.50;28.00;;;;;;5090195;28;20081;-82
2022/03/21 12:35:35;;;;;;;13.70;9.20;;;18.60;27.90;;;;;;5089475;28;20417;-81
2022/03/21 12:40:09;;;;;;;14.35;9.20;;;17.40;28.80;;;;;;5084120;27;1399152;-82
2022/03/21 12:42:41;;;;;;;13.27;9.15;;;17.60;29.20;;;;;;5093223;28;20080;-82
2022/03/21 12:45:07;;;;;;;17.80;9.65;;;17.80;28.70;;;;;;5092725;28;20077;-81
2022/03/21 12:47:35;;;;;;;13.65;9.40;;;17.50;28.00;;;;;;5092117;28;20023;-81
2022/03/21 12:50:05;;;;;;;14.60;9.30;;;17.00;29.20;;;;;;5092801;28;20520;-80
2022/03/21 12:52:32;;;;;;;13.82;9.30;;;16.40;28.50;;;;;;5110903;28;20417;-82
2022/03/21 12:54:58;;;;;;;13.60;10.10;;;16.40;28.70;;;;;;5092498;28;20028;-81
2022/03/21 12:57:25;;;;;;;14.32;9.80;;;16.70;28.60;;;;;;5092520;28;20034;-83
2022/03/21 12:59:50;;;;;;;15.75;9.48;;;17.30;28.50;;;;;;5092441;28;20071;-81
2022/03/21 13:02:26;;;;;;;17.77;9.88;;;18.20;29.10;;;;;;5110433;28;20051;-81
2022/03/21 13:10:33;;;;;;;15.18;9.35;;;18.90;27.70;;;;;;5090863;28;20043;-85
2022/03/21 13:13:00;;;;;;;15.60;9.80;;;18.30;27.80;;;;;;5072233;28;20020;-82
2022/03/21 13:15:28;;;;;;;14.55;9.75;;;18.20;28.00;;;;;;5090517;28;20026;-82
2022/03/21 13:18:01;;;;;;;13.27;9.57;;;18.80;28.30;;;;;;5090228;28;20412;-82
2022/03/21 13:20:31;;;;;;;13.50;9.52;;;19.40;27.80;;;;;;5072223;28;20529;-81